createdAt,value
2024-02-22T00:00:49.846Z,647.00
2024-02-22T00:01:49.130Z,647.00
2024-02-22T00:02:49.034Z,648.00
2024-02-22T00:03:49.010Z,646.00
2024-02-22T00:04:49.206Z,647.00
2024-02-22T00:05:49.176Z,642.00
2024-02-22T00:06:49.092Z,648.00
2024-02-22T00:07:49.047Z,646.00
2024-02-22T00:08:48.998Z,645.00
2024-02-22T00:09:49.119Z,648.00
2024-02-22T00:10:49.140Z,648.00
2024-02-22T00:11:49.184Z,650.00
2024-02-22T00:12:49.085Z,650.00
2024-02-22T00:13:49.085Z,647.00
2024-02-22T00:14:49.053Z,643.00
2024-02-22T00:15:48.988Z,648.00
2024-02-22T00:16:49.089Z,649.00
2024-02-22T00:17:49.735Z,647.00
2024-02-22T00:18:49.213Z,650.00
2024-02-22T00:19:49.160Z,647.00
2024-02-22T00:20:49.049Z,649.00
2024-02-22T00:21:49.085Z,648.00
2024-02-22T00:22:49.086Z,646.00
2024-02-22T00:23:49.472Z,648.00
2024-02-22T00:24:49.065Z,648.00
2024-02-22T00:25:49.108Z,649.00
2024-02-22T00:26:49.033Z,648.00
2024-02-22T00:27:49.056Z,646.00
2024-02-22T00:28:49.101Z,644.00
2024-02-22T00:29:49.144Z,647.00
2024-02-22T00:30:49.133Z,650.00
2024-02-22T00:31:49.211Z,649.00
2024-02-22T00:32:49.243Z,650.00
2024-02-22T00:33:49.276Z,651.00
2024-02-22T00:34:49.318Z,649.00
2024-02-22T00:35:49.289Z,651.00
2024-02-22T00:36:49.316Z,645.00
2024-02-22T00:37:49.396Z,648.00
2024-02-22T00:38:49.390Z,649.00
2024-02-22T00:39:49.440Z,649.00
2024-02-22T00:40:49.574Z,647.00
2024-02-22T00:41:49.520Z,651.00
2024-02-22T00:42:49.502Z,650.00
2024-02-22T00:43:49.573Z,648.00
2024-02-22T00:44:49.573Z,648.00
2024-02-22T00:45:49.582Z,647.00
2024-02-22T00:46:51.864Z,648.00
2024-02-22T00:47:49.651Z,650.00
2024-02-22T00:48:49.718Z,652.00
2024-02-22T00:49:49.751Z,645.00
2024-02-22T00:50:49.715Z,648.00
2024-02-22T00:51:49.695Z,648.00
2024-02-22T00:52:49.745Z,646.00
2024-02-22T00:53:49.752Z,649.00
2024-02-22T00:54:49.648Z,652.00
2024-02-22T00:55:49.728Z,647.00
2024-02-22T00:56:49.668Z,651.00
2024-02-22T00:57:49.619Z,651.00
2024-02-22T00:58:49.750Z,652.00
2024-02-22T00:59:49.645Z,649.00
2024-02-22T01:00:49.694Z,649.00
2024-02-22T01:01:49.714Z,650.00
2024-02-22T01:02:49.862Z,652.00
2024-02-22T01:03:49.760Z,651.00
2024-02-22T01:04:49.781Z,648.00
2024-02-22T01:05:49.799Z,649.00
2024-02-22T01:06:49.693Z,649.00
2024-02-22T01:07:49.658Z,650.00
2024-02-22T01:08:49.722Z,649.00
2024-02-22T01:09:49.672Z,651.00
2024-02-22T01:10:49.782Z,652.00
2024-02-22T01:11:49.809Z,648.00
2024-02-22T01:12:49.728Z,653.00
2024-02-22T01:13:49.724Z,650.00
2024-02-22T01:14:49.761Z,650.00
2024-02-22T01:15:49.711Z,650.00
2024-02-22T01:16:49.727Z,649.00
2024-02-22T01:17:49.817Z,652.00
2024-02-22T01:18:49.745Z,649.00
2024-02-22T01:19:49.794Z,650.00
2024-02-22T01:20:49.684Z,649.00
2024-02-22T01:21:49.702Z,647.00
2024-02-22T01:22:49.670Z,650.00
2024-02-22T01:23:49.769Z,649.00
2024-02-22T01:24:49.666Z,650.00
2024-02-22T01:25:49.687Z,646.00
2024-02-22T01:26:49.687Z,645.00
2024-02-22T01:27:49.766Z,651.00
2024-02-22T01:28:49.773Z,650.00
2024-02-22T01:29:49.741Z,652.00
2024-02-22T01:30:49.764Z,652.00
2024-02-22T01:31:49.714Z,653.00
2024-02-22T01:32:49.882Z,651.00
2024-02-22T01:33:49.798Z,650.00
2024-02-22T01:34:49.698Z,651.00
2024-02-22T01:35:49.693Z,650.00
2024-02-22T01:36:49.687Z,646.00
2024-02-22T01:37:49.727Z,649.00
2024-02-22T01:38:49.653Z,648.00
2024-02-22T01:39:49.698Z,648.00
2024-02-22T01:40:49.770Z,653.00
2024-02-22T01:41:49.728Z,652.00
2024-02-22T01:42:49.883Z,649.00
2024-02-22T01:43:49.772Z,653.00
2024-02-22T01:44:49.851Z,649.00
2024-02-22T01:45:49.854Z,648.00
2024-02-22T01:46:49.920Z,653.00
2024-02-22T01:47:50.012Z,652.00
2024-02-22T01:48:52.070Z,652.00
2024-02-22T01:49:50.841Z,648.00
2024-02-22T01:50:50.034Z,650.00
2024-02-22T01:51:50.039Z,652.00
2024-02-22T01:52:50.155Z,650.00
2024-02-22T01:53:50.155Z,651.00
2024-02-22T01:54:50.176Z,649.00
2024-02-22T01:55:50.206Z,648.00
2024-02-22T01:56:50.244Z,649.00
2024-02-22T01:57:50.252Z,650.00
2024-02-22T01:58:50.336Z,651.00
2024-02-22T01:59:50.302Z,652.00
2024-02-22T02:00:50.385Z,654.00
2024-02-22T02:01:50.421Z,652.00
2024-02-22T02:02:50.376Z,652.00
2024-02-22T02:03:50.462Z,649.00
2024-02-22T02:04:50.536Z,652.00
2024-02-22T02:05:50.476Z,648.00
2024-02-22T02:06:50.579Z,651.00
2024-02-22T02:07:50.654Z,651.00
2024-02-22T02:08:50.557Z,652.00
2024-02-22T02:09:50.686Z,655.00
2024-02-22T02:10:50.689Z,652.00
2024-02-22T02:11:50.750Z,657.00
2024-02-22T02:12:50.699Z,652.00
2024-02-22T02:13:50.776Z,652.00
2024-02-22T02:14:50.778Z,653.00
2024-02-22T02:15:50.787Z,648.00
2024-02-22T02:16:50.861Z,652.00
2024-02-22T02:17:50.874Z,651.00
2024-02-22T02:18:50.945Z,651.00
2024-02-22T02:19:50.998Z,655.00
2024-02-22T02:20:50.953Z,656.00
2024-02-22T02:21:51.022Z,651.00
2024-02-22T02:22:51.067Z,650.00
2024-02-22T02:23:51.060Z,654.00
2024-02-22T02:24:51.064Z,653.00
2024-02-22T02:25:51.333Z,652.00
2024-02-22T02:26:51.291Z,650.00
2024-02-22T02:27:51.189Z,648.00
2024-02-22T02:28:51.229Z,654.00
2024-02-22T02:29:51.348Z,655.00
2024-02-22T02:30:51.347Z,650.00
2024-02-22T02:31:51.562Z,654.00
2024-02-22T02:32:51.464Z,653.00
2024-02-22T02:33:51.534Z,655.00
2024-02-22T02:34:51.528Z,655.00
2024-02-22T02:35:51.468Z,654.00
2024-02-22T02:36:51.486Z,653.00
2024-02-22T02:37:51.490Z,652.00
2024-02-22T02:38:51.589Z,654.00
2024-02-22T02:39:51.556Z,653.00
2024-02-22T02:40:51.599Z,657.00
2024-02-22T02:41:51.564Z,650.00
2024-02-22T02:42:51.721Z,651.00
2024-02-22T02:43:51.700Z,653.00
2024-02-22T02:44:51.706Z,649.00
2024-02-22T02:45:51.734Z,655.00
2024-02-22T02:46:51.804Z,654.00
2024-02-22T02:47:51.867Z,650.00
2024-02-22T02:48:51.988Z,648.00
2024-02-22T02:49:51.868Z,652.00
2024-02-22T02:50:51.877Z,653.00
2024-02-22T02:51:51.944Z,651.00
2024-02-22T02:52:51.966Z,654.00
2024-02-22T02:53:52.002Z,653.00
2024-02-22T02:54:52.072Z,651.00
2024-02-22T02:55:52.096Z,652.00
2024-02-22T02:56:52.090Z,656.00
2024-02-22T02:57:52.147Z,655.00
2024-02-22T02:58:52.263Z,652.00
2024-02-22T02:59:52.200Z,658.00
2024-02-22T03:00:52.294Z,654.00
2024-02-22T03:01:52.364Z,654.00
2024-02-22T03:02:52.361Z,655.00
2024-02-22T03:03:52.362Z,650.00
2024-02-22T03:04:52.563Z,655.00
2024-02-22T03:05:52.488Z,654.00
2024-02-22T03:06:52.907Z,656.00
2024-02-22T03:07:52.525Z,653.00
2024-02-22T03:08:52.537Z,653.00
2024-02-22T03:09:52.521Z,656.00
2024-02-22T03:10:52.732Z,656.00
2024-02-22T03:11:52.707Z,656.00
2024-02-22T03:12:52.661Z,653.00
2024-02-22T03:13:52.755Z,653.00
2024-02-22T03:14:52.746Z,651.00
2024-02-22T03:15:52.765Z,657.00
2024-02-22T03:16:52.833Z,657.00
2024-02-22T03:17:52.927Z,654.00
2024-02-22T03:18:52.972Z,655.00
2024-02-22T03:19:52.909Z,653.00
2024-02-22T03:20:52.972Z,656.00
2024-02-22T03:21:53.158Z,652.00
2024-02-22T03:22:53.057Z,653.00
2024-02-22T03:23:53.100Z,655.00
2024-02-22T03:24:53.082Z,654.00
2024-02-22T03:25:53.288Z,654.00
2024-02-22T03:26:53.149Z,656.00
2024-02-22T03:27:53.206Z,655.00
2024-02-22T03:28:53.309Z,654.00
2024-02-22T03:29:53.255Z,657.00
2024-02-22T03:30:53.386Z,653.00
2024-02-22T03:31:53.462Z,656.00
2024-02-22T03:32:53.423Z,657.00
2024-02-22T03:33:53.432Z,655.00
2024-02-22T03:34:53.493Z,656.00
2024-02-22T03:35:53.473Z,655.00
2024-02-22T03:36:53.515Z,653.00
2024-02-22T03:37:53.561Z,654.00
2024-02-22T03:38:53.533Z,655.00
2024-02-22T03:39:53.647Z,656.00
2024-02-22T03:40:53.694Z,655.00
2024-02-22T03:41:53.645Z,655.00
2024-02-22T03:42:53.721Z,656.00
2024-02-22T03:43:53.832Z,651.00
2024-02-22T03:44:53.847Z,656.00
2024-02-22T03:45:53.788Z,655.00
2024-02-22T03:46:53.868Z,655.00
2024-02-22T03:47:53.927Z,652.00
2024-02-22T03:48:53.882Z,657.00
2024-02-22T03:49:53.899Z,659.00
2024-02-22T03:50:53.953Z,653.00
2024-02-22T03:51:53.937Z,654.00
2024-02-22T03:52:54.022Z,656.00
2024-02-22T03:53:54.034Z,654.00
2024-02-22T03:54:54.007Z,650.00
2024-02-22T03:55:54.454Z,654.00
2024-02-22T03:56:54.103Z,656.00
2024-02-22T03:57:55.189Z,659.00
2024-02-22T03:58:54.178Z,651.00
2024-02-22T03:59:54.180Z,651.00
2024-02-22T04:00:54.215Z,656.00
2024-02-22T04:01:54.318Z,656.00
2024-02-22T04:02:54.355Z,656.00
2024-02-22T04:03:54.403Z,656.00
2024-02-22T04:04:54.384Z,656.00
2024-02-22T04:05:54.548Z,655.00
2024-02-22T04:06:54.611Z,657.00
2024-02-22T04:07:54.527Z,657.00
2024-02-22T04:08:54.442Z,653.00
2024-02-22T04:09:54.527Z,658.00
2024-02-22T04:10:54.638Z,656.00
2024-02-22T04:11:54.689Z,656.00
2024-02-22T04:12:54.583Z,657.00
2024-02-22T04:13:54.657Z,657.00
2024-02-22T04:14:54.671Z,656.00
2024-02-22T04:15:54.702Z,658.00
2024-02-22T04:16:54.799Z,657.00
2024-02-22T04:17:54.858Z,658.00
2024-02-22T04:18:55.030Z,656.00
2024-02-22T04:19:54.862Z,656.00
2024-02-22T04:20:54.879Z,657.00
2024-02-22T04:21:54.861Z,657.00
2024-02-22T04:22:55.848Z,658.00
2024-02-22T04:23:54.917Z,656.00
2024-02-22T04:24:54.942Z,656.00
2024-02-22T04:25:55.035Z,657.00
2024-02-22T04:27:02.180Z,600.00
2024-02-22T04:28:02.227Z,600.00
2024-02-22T04:29:02.314Z,600.00
2024-02-22T04:30:02.262Z,600.00
2024-02-22T04:31:09.484Z,600.00
2024-02-22T04:32:09.530Z,600.00
2024-02-22T04:33:09.545Z,600.00
2024-02-22T04:34:09.488Z,600.00
2024-02-22T04:35:09.623Z,600.00
2024-02-22T04:36:09.474Z,601.00
2024-02-22T04:37:09.475Z,600.00
2024-02-22T04:38:09.555Z,605.00
2024-02-22T04:39:09.568Z,605.00
2024-02-22T04:40:09.514Z,601.00
2024-02-22T04:41:09.655Z,606.00
2024-02-22T04:42:09.487Z,603.00
2024-02-22T04:43:09.454Z,601.00
2024-02-22T04:44:09.497Z,604.00
2024-02-22T04:45:09.466Z,607.00
2024-02-22T04:46:09.450Z,600.00
2024-02-22T04:47:09.459Z,606.00
2024-02-22T04:48:09.614Z,601.00
2024-02-22T04:49:09.502Z,603.00
2024-02-22T04:50:09.540Z,605.00
2024-02-22T04:51:09.482Z,606.00
2024-02-22T04:52:09.427Z,605.00
2024-02-22T04:53:09.511Z,603.00
2024-02-22T04:54:09.521Z,600.00
2024-02-22T04:55:09.443Z,606.00
2024-02-22T04:56:09.513Z,606.00
2024-02-22T04:57:09.467Z,604.00
2024-02-22T04:58:09.470Z,604.00
2024-02-22T04:59:09.552Z,604.00
2024-02-22T05:00:09.515Z,607.00
2024-02-22T05:01:09.581Z,607.00
2024-02-22T05:02:09.571Z,606.00
2024-02-22T05:03:09.478Z,605.00
2024-02-22T05:04:09.697Z,604.00
2024-02-22T05:05:09.755Z,604.00
2024-02-22T05:06:09.493Z,604.00
2024-02-22T05:07:09.435Z,603.00
2024-02-22T05:08:09.518Z,606.00
2024-02-22T05:09:09.582Z,604.00
2024-02-22T05:10:09.477Z,600.00
2024-02-22T05:11:09.755Z,600.00
2024-02-22T05:12:09.642Z,603.00
2024-02-22T05:13:09.672Z,602.00
2024-02-22T05:14:09.756Z,598.00
2024-02-22T05:15:09.680Z,601.00
2024-02-22T05:16:09.698Z,600.00
2024-02-22T05:17:09.743Z,601.00
2024-02-22T05:18:09.820Z,600.00
2024-02-22T05:19:09.784Z,600.00
2024-02-22T05:20:09.904Z,601.00
2024-02-22T05:21:09.884Z,600.00
2024-02-22T05:22:09.986Z,600.00
2024-02-22T05:23:09.994Z,603.00
2024-02-22T05:24:09.993Z,601.00
2024-02-22T05:25:10.089Z,600.00
2024-02-22T05:26:10.055Z,604.00
2024-02-22T05:27:10.114Z,601.00
2024-02-22T05:28:10.123Z,600.00
2024-02-22T05:29:10.315Z,602.00
2024-02-22T05:30:10.191Z,602.00
2024-02-22T05:31:10.238Z,598.00
2024-02-22T05:32:10.316Z,602.00
2024-02-22T05:33:10.365Z,600.00
2024-02-22T05:34:10.392Z,600.00
2024-02-22T05:35:10.419Z,600.00
2024-02-22T05:36:10.400Z,601.00
2024-02-22T05:37:10.649Z,602.00
2024-02-22T05:38:10.489Z,606.00
2024-02-22T05:39:10.529Z,601.00
2024-02-22T05:40:10.538Z,605.00
2024-02-22T05:41:10.630Z,606.00
2024-02-22T05:42:10.589Z,605.00
2024-02-22T05:43:10.631Z,608.00
2024-02-22T05:44:10.676Z,609.00
2024-02-22T05:45:10.695Z,612.00
2024-02-22T05:46:10.752Z,611.00
2024-02-22T05:47:10.890Z,612.00
2024-02-22T05:48:10.920Z,615.00
2024-02-22T05:49:10.954Z,616.00
2024-02-22T05:50:11.142Z,622.00
2024-02-22T05:51:10.959Z,622.00
2024-02-22T05:52:10.998Z,624.00
2024-02-22T05:53:11.135Z,626.00
2024-02-22T05:54:11.089Z,626.00
2024-02-22T05:55:11.074Z,628.00
2024-02-22T05:56:11.205Z,627.00
2024-02-22T05:57:12.524Z,633.00
2024-02-22T05:58:11.209Z,635.00
2024-02-22T05:59:11.335Z,632.00
2024-02-22T06:00:11.301Z,635.00
2024-02-22T06:01:11.401Z,634.00
2024-02-22T06:02:11.392Z,637.00
2024-02-22T06:03:11.474Z,640.00
2024-02-22T06:04:11.475Z,641.00
2024-02-22T06:05:11.772Z,643.00
2024-02-22T06:06:11.559Z,644.00
2024-02-22T06:07:11.596Z,644.00
2024-02-22T06:08:11.674Z,645.00
2024-02-22T06:09:12.590Z,642.00
2024-02-22T06:10:11.636Z,640.00
2024-02-22T06:11:11.804Z,639.00
2024-02-22T06:12:14.265Z,637.00
2024-02-22T06:13:11.727Z,637.00
2024-02-22T06:14:11.884Z,636.00
2024-02-22T06:15:11.751Z,635.00
2024-02-22T06:16:11.792Z,621.00
2024-02-22T06:17:11.797Z,605.00
2024-02-22T06:18:11.819Z,600.00
2024-02-22T06:19:11.786Z,600.00
2024-02-22T06:20:11.787Z,600.00
2024-02-22T06:21:11.705Z,599.00
2024-02-22T06:22:11.729Z,600.00
2024-02-22T06:23:11.752Z,600.00
2024-02-22T06:24:11.744Z,600.00
2024-02-22T06:25:11.746Z,600.00
2024-02-22T06:26:11.770Z,603.00
2024-02-22T06:27:12.185Z,599.00
2024-02-22T06:28:11.779Z,602.00
2024-02-22T06:29:11.846Z,599.00
2024-02-22T06:30:11.722Z,604.00
2024-02-22T06:31:11.781Z,603.00
2024-02-22T06:32:12.304Z,605.00
2024-02-22T06:33:11.898Z,601.00
2024-02-22T06:34:12.165Z,605.00
2024-02-22T06:35:11.836Z,603.00
2024-02-22T06:36:12.134Z,615.00
2024-02-22T06:37:11.741Z,618.00
2024-02-22T06:38:11.855Z,620.00
2024-02-22T06:39:11.757Z,622.00
2024-02-22T06:40:11.736Z,624.00
2024-02-22T06:41:11.786Z,628.00
2024-02-22T06:42:11.898Z,633.00
2024-02-22T06:43:11.801Z,641.00
2024-02-22T06:44:11.922Z,647.00
2024-02-22T06:45:11.837Z,650.00
2024-02-22T06:46:11.748Z,656.00
2024-02-22T06:47:11.922Z,657.00
2024-02-22T06:48:12.093Z,661.00
2024-02-22T06:49:12.068Z,675.00
2024-02-22T06:50:11.948Z,683.00
2024-02-22T06:51:11.985Z,687.00
2024-02-22T06:52:11.992Z,691.00
2024-02-22T06:53:12.132Z,699.00
2024-02-22T06:54:12.063Z,687.00
2024-02-22T06:55:12.080Z,692.00
2024-02-22T06:56:12.753Z,681.00
2024-02-22T06:57:13.630Z,684.00
2024-02-22T06:58:12.110Z,676.00
2024-02-22T06:59:12.201Z,678.00
2024-02-22T07:00:12.164Z,680.00
2024-02-22T07:01:12.278Z,670.00
2024-02-22T07:02:12.294Z,666.00
2024-02-22T07:03:12.247Z,661.00
2024-02-22T07:04:13.160Z,658.00
2024-02-22T07:05:12.462Z,666.00
2024-02-22T07:06:13.027Z,669.00
2024-02-22T07:07:19.641Z,665.00
2024-02-22T07:08:12.462Z,665.00
2024-02-22T07:09:15.188Z,665.00
2024-02-22T07:10:12.506Z,667.00
2024-02-22T07:11:12.441Z,666.00
2024-02-22T07:12:12.574Z,662.00
2024-02-22T07:13:12.639Z,659.00
2024-02-22T07:14:12.718Z,653.00
2024-02-22T07:15:15.165Z,653.00
2024-02-22T07:16:12.380Z,652.00
2024-02-22T07:17:12.717Z,653.00
2024-02-22T07:18:12.583Z,654.00
2024-02-22T07:19:12.751Z,655.00
2024-02-22T07:20:12.412Z,657.00
2024-02-22T07:21:12.371Z,663.00
2024-02-22T07:22:12.473Z,663.00
2024-02-22T07:23:13.152Z,659.00
2024-02-22T07:24:12.735Z,658.00
2024-02-22T07:25:12.405Z,654.00
2024-02-22T07:26:12.547Z,657.00
2024-02-22T07:27:12.636Z,655.00
2024-02-22T07:28:13.342Z,659.00
2024-02-22T07:29:14.668Z,655.00
2024-02-22T07:30:12.651Z,655.00
2024-02-22T07:31:15.367Z,655.00
2024-02-22T07:32:12.515Z,655.00
2024-02-22T07:33:12.784Z,656.00
2024-02-22T07:34:12.664Z,654.00
2024-02-22T07:35:12.446Z,651.00
2024-02-22T07:36:12.639Z,649.00
2024-02-22T07:37:12.501Z,649.00
2024-02-22T07:38:12.452Z,645.00
2024-02-22T07:39:12.423Z,652.00
2024-02-22T07:40:12.462Z,648.00
2024-02-22T07:41:12.551Z,645.00
2024-02-22T07:42:12.512Z,648.00
2024-02-22T07:43:12.523Z,656.00
2024-02-22T07:44:15.210Z,650.00
2024-02-22T07:45:13.360Z,649.00
2024-02-22T07:46:13.697Z,651.00
2024-02-22T07:47:15.265Z,648.00
2024-02-22T07:48:12.564Z,645.00
2024-02-22T07:49:12.464Z,645.00
2024-02-22T07:50:13.223Z,647.00
2024-02-22T07:51:12.678Z,642.00
2024-02-22T07:52:12.453Z,647.00
2024-02-22T07:53:13.166Z,646.00
2024-02-22T07:54:14.658Z,645.00
2024-02-22T07:55:12.424Z,647.00
2024-02-22T07:56:13.075Z,647.00
2024-02-22T07:57:12.463Z,648.00
2024-02-22T07:58:13.279Z,649.00
2024-02-22T07:59:12.799Z,655.00
2024-02-22T08:00:14.117Z,654.00
2024-02-22T08:01:12.663Z,653.00
2024-02-22T08:02:12.767Z,657.00
2024-02-22T08:03:12.785Z,658.00
2024-02-22T08:04:12.717Z,660.00
2024-02-22T08:05:12.901Z,667.00
2024-02-22T08:06:14.042Z,676.00
2024-02-22T08:07:13.287Z,680.00
2024-02-22T08:08:12.945Z,706.00
2024-02-22T08:09:12.860Z,694.00
2024-02-22T08:10:14.756Z,714.00
2024-02-22T08:11:13.957Z,730.00
2024-02-22T08:12:23.792Z,744.00
2024-02-22T08:13:12.950Z,744.00
2024-02-22T08:14:13.197Z,746.00
2024-02-22T08:15:14.924Z,754.00
2024-02-22T08:16:13.582Z,765.00
2024-02-22T08:17:13.150Z,785.00
2024-02-22T08:18:13.024Z,794.00
2024-02-22T08:19:13.012Z,800.00
2024-02-22T08:20:13.724Z,808.00
2024-02-22T08:21:13.091Z,810.00
2024-02-22T08:22:13.041Z,818.00
2024-02-22T08:23:13.811Z,816.00
2024-02-22T08:24:13.676Z,822.00
2024-02-22T08:25:13.644Z,835.00
2024-02-22T08:26:13.274Z,830.00
2024-02-22T08:27:13.619Z,818.00
2024-02-22T08:28:13.242Z,800.00
2024-02-22T08:29:13.422Z,786.00
2024-02-22T08:30:14.393Z,782.00
2024-02-22T08:31:15.326Z,768.00
2024-02-22T08:32:13.393Z,761.00
2024-02-22T08:33:15.332Z,753.00
2024-02-22T08:34:13.548Z,754.00
2024-02-22T08:35:13.421Z,755.00
2024-02-22T08:36:13.402Z,726.00
2024-02-22T08:37:13.392Z,687.00
2024-02-22T08:38:13.689Z,676.00
2024-02-22T08:39:13.403Z,657.00
2024-02-22T08:40:25.080Z,650.00
2024-02-22T08:41:15.200Z,648.00
2024-02-22T08:42:13.469Z,646.00
2024-02-22T08:43:13.502Z,647.00
2024-02-22T08:44:16.573Z,651.00
2024-02-22T08:45:13.476Z,656.00
2024-02-22T08:46:13.723Z,660.00
2024-02-22T08:47:13.531Z,660.00
2024-02-22T08:48:13.600Z,661.00
2024-02-22T08:49:13.455Z,668.00
2024-02-22T08:50:13.509Z,679.00
2024-02-22T08:51:13.457Z,687.00
2024-02-22T08:52:13.459Z,693.00
2024-02-22T08:53:14.222Z,692.00
2024-02-22T08:54:13.425Z,693.00
2024-02-22T08:55:13.856Z,698.00
2024-02-22T08:56:13.717Z,722.00
2024-02-22T08:57:13.554Z,728.00
2024-02-22T08:58:13.456Z,736.00
2024-02-22T08:59:13.464Z,737.00
2024-02-22T09:00:13.688Z,726.00
2024-02-22T09:01:13.625Z,724.00
2024-02-22T09:02:13.764Z,728.00
2024-02-22T09:03:13.479Z,723.00
2024-02-22T09:04:13.527Z,735.00
2024-02-22T09:05:13.486Z,722.00
2024-02-22T09:06:13.661Z,733.00
2024-02-22T09:07:13.741Z,743.00
2024-02-22T09:08:13.747Z,746.00
2024-02-22T09:09:13.515Z,750.00
2024-02-22T09:10:13.539Z,751.00
2024-02-22T09:11:14.570Z,741.00
2024-02-22T09:12:13.506Z,758.00
2024-02-22T09:13:13.745Z,742.00
2024-02-22T09:14:13.449Z,760.00
2024-02-22T09:15:13.510Z,772.00
2024-02-22T09:16:13.487Z,785.00
2024-02-22T09:17:13.529Z,781.00
2024-02-22T09:18:14.265Z,783.00
2024-02-22T09:19:14.289Z,790.00
2024-02-22T09:20:14.499Z,794.00
2024-02-22T09:21:13.610Z,790.00
2024-02-22T09:22:13.718Z,790.00
2024-02-22T09:23:13.614Z,808.00
2024-02-22T09:24:13.469Z,811.00
2024-02-22T09:25:13.545Z,818.00
2024-02-22T09:26:13.616Z,796.00
2024-02-22T09:27:13.757Z,818.00
2024-02-22T09:28:13.494Z,809.00
2024-02-22T09:29:13.526Z,811.00
2024-02-22T09:30:13.473Z,832.00
2024-02-22T09:31:13.495Z,819.00
2024-02-22T09:32:13.613Z,831.00
2024-02-22T09:33:13.485Z,831.00
2024-02-22T09:34:13.753Z,827.00
2024-02-22T09:35:13.612Z,805.00
2024-02-22T09:36:13.621Z,769.00
2024-02-22T09:37:14.244Z,744.00
2024-02-22T09:38:13.571Z,709.00
2024-02-22T09:39:13.530Z,693.00
2024-02-22T09:40:14.283Z,667.00
2024-02-22T09:41:13.590Z,663.00
2024-02-22T09:42:14.265Z,660.00
2024-02-22T09:43:13.543Z,658.00
2024-02-22T09:44:13.633Z,658.00
2024-02-22T09:45:14.281Z,652.00
2024-02-22T09:46:13.591Z,643.00
2024-02-22T09:47:13.695Z,639.00
2024-02-22T09:48:13.803Z,633.00
2024-02-22T09:49:13.637Z,631.00
2024-02-22T09:50:16.840Z,638.00
2024-02-22T09:51:14.392Z,646.00
2024-02-22T09:52:13.830Z,651.00
2024-02-22T09:53:13.689Z,655.00
2024-02-22T09:54:13.563Z,653.00
2024-02-22T09:55:13.642Z,657.00
2024-02-22T09:56:14.471Z,657.00
2024-02-22T09:57:13.709Z,659.00
2024-02-22T09:58:14.192Z,667.00
2024-02-22T09:59:14.239Z,662.00
2024-02-22T10:00:15.100Z,668.00
2024-02-22T10:01:13.648Z,682.00
2024-02-22T10:02:13.767Z,692.00
2024-02-22T10:03:13.534Z,701.00
2024-02-22T10:04:13.704Z,701.00
2024-02-22T10:05:14.108Z,717.00
2024-02-22T10:06:13.780Z,716.00
2024-02-22T10:07:13.849Z,703.00
2024-02-22T10:08:14.390Z,680.00
2024-02-22T10:09:14.257Z,660.00
2024-02-22T10:10:13.573Z,655.00
2024-02-22T10:11:14.383Z,652.00
2024-02-22T10:12:16.002Z,647.00
2024-02-22T10:13:14.982Z,646.00
2024-02-22T10:14:14.002Z,643.00
2024-02-22T10:15:13.714Z,641.00
2024-02-22T10:16:14.292Z,644.00
2024-02-22T10:17:13.846Z,636.00
2024-02-22T10:18:13.775Z,635.00
2024-02-22T10:19:13.661Z,633.00
2024-02-22T10:20:13.703Z,629.00
2024-02-22T10:21:13.608Z,613.00
2024-02-22T10:22:14.757Z,605.00
2024-02-22T10:23:13.945Z,605.00
2024-02-22T10:24:13.857Z,599.00
2024-02-22T10:25:14.071Z,601.00
2024-02-22T10:26:13.948Z,600.00
2024-02-22T10:27:14.287Z,604.00
2024-02-22T10:28:18.596Z,601.00
2024-02-22T10:29:16.832Z,601.00
2024-02-22T10:30:14.267Z,600.00
2024-02-22T10:31:13.972Z,589.00
2024-02-22T10:32:14.083Z,576.00
2024-02-22T10:33:14.172Z,560.00
2024-02-22T10:34:14.579Z,587.00
2024-02-22T10:35:14.100Z,600.00
2024-02-22T10:36:14.003Z,602.00
2024-02-22T10:37:17.097Z,608.00
2024-02-22T10:38:15.106Z,608.00
2024-02-22T10:39:15.683Z,610.00
2024-02-22T10:40:14.142Z,613.00
2024-02-22T10:41:14.093Z,622.00
2024-02-22T10:42:13.981Z,638.00
2024-02-22T10:43:14.692Z,650.00
2024-02-22T10:44:14.865Z,664.00
2024-02-22T10:45:13.982Z,697.00
2024-02-22T10:46:13.941Z,730.00
2024-02-22T10:47:14.410Z,763.00
2024-02-22T10:48:14.430Z,793.00
2024-02-22T10:49:13.992Z,824.00
2024-02-22T10:50:14.015Z,828.00
2024-02-22T10:51:13.923Z,836.00
2024-02-22T10:52:13.929Z,837.00
2024-02-22T10:53:14.780Z,854.00
2024-02-22T10:54:13.999Z,866.00
2024-02-22T10:55:14.046Z,884.00
2024-02-22T10:56:14.213Z,892.00
2024-02-22T10:57:14.175Z,912.00
2024-02-22T10:58:14.679Z,924.00
2024-02-22T10:59:14.570Z,934.00
2024-02-22T11:00:15.209Z,939.00
2024-02-22T11:01:14.567Z,943.00
2024-02-22T11:02:14.423Z,940.00
2024-02-22T11:03:14.474Z,939.00
2024-02-22T11:04:14.541Z,942.00
2024-02-22T11:05:14.940Z,937.00
2024-02-22T11:06:14.646Z,985.00
2024-02-22T11:07:14.697Z,1053.00
2024-02-22T11:08:14.822Z,1106.00
2024-02-22T11:09:15.752Z,1116.00
2024-02-22T11:10:15.300Z,1105.00
2024-02-22T11:11:15.028Z,1093.00
2024-02-22T11:12:15.034Z,1085.00
2024-02-22T11:13:15.063Z,1077.00
2024-02-22T11:14:15.175Z,1085.00
2024-02-22T11:15:15.593Z,1114.00
2024-02-22T11:16:15.113Z,1298.00
2024-02-22T11:17:15.245Z,1366.00
2024-02-22T11:18:15.320Z,1411.00
2024-02-22T11:19:15.412Z,1402.00
2024-02-22T11:20:16.397Z,1386.00
2024-02-22T11:21:15.466Z,1377.00
2024-02-22T11:22:19.545Z,1343.00
2024-02-22T11:23:16.933Z,1326.00
2024-02-22T11:24:15.408Z,1303.00
2024-02-22T11:25:15.377Z,1293.00
2024-02-22T11:26:15.611Z,1266.00
2024-02-22T11:27:15.474Z,1228.00
2024-02-22T11:28:15.510Z,1181.00
2024-02-22T11:29:16.366Z,1116.00
2024-02-22T11:30:15.483Z,1090.00
2024-02-22T11:31:15.803Z,1018.00
2024-02-22T11:32:18.329Z,934.00
2024-02-22T11:33:15.508Z,873.00
2024-02-22T11:34:15.537Z,792.00
2024-02-22T11:35:15.487Z,738.00
2024-02-22T11:36:15.417Z,725.00
2024-02-22T11:37:15.418Z,696.00
2024-02-22T11:38:15.438Z,671.00
2024-02-22T11:39:15.438Z,658.00
2024-02-22T11:40:15.428Z,648.00
2024-02-22T11:41:15.582Z,644.00
2024-02-22T11:42:15.420Z,641.00
2024-02-22T11:43:15.393Z,639.00
2024-02-22T11:44:15.538Z,634.00
2024-02-22T11:45:15.427Z,634.00
2024-02-22T11:46:15.495Z,641.00
2024-02-22T11:47:15.457Z,644.00
2024-02-22T11:48:15.550Z,649.00
2024-02-22T11:49:15.643Z,662.00
2024-02-22T11:50:15.591Z,662.00
2024-02-22T11:51:15.622Z,666.00
2024-02-22T11:52:15.672Z,698.00
2024-02-22T11:53:15.778Z,720.00
2024-02-22T11:54:15.849Z,725.00
2024-02-22T11:55:15.813Z,746.00
2024-02-22T11:56:16.241Z,758.00
2024-02-22T11:57:15.849Z,770.00
2024-02-22T11:58:15.937Z,780.00
2024-02-22T11:59:16.092Z,773.00
2024-02-22T12:00:16.044Z,783.00
2024-02-22T12:01:16.321Z,788.00
2024-02-22T12:02:16.192Z,786.00
2024-02-22T12:03:16.284Z,776.00
2024-02-22T12:04:16.778Z,777.00
2024-02-22T12:05:16.510Z,759.00
2024-02-22T12:06:17.374Z,751.00
2024-02-22T12:07:16.469Z,735.00
2024-02-22T12:08:16.579Z,738.00
2024-02-22T12:09:16.853Z,734.00
2024-02-22T12:10:16.561Z,728.00
2024-02-22T12:11:16.724Z,722.00
2024-02-22T12:12:16.862Z,723.00
2024-02-22T12:13:16.745Z,720.00
2024-02-22T12:14:17.514Z,730.00
2024-02-22T12:15:19.996Z,757.00
2024-02-22T12:16:16.973Z,757.00
2024-02-22T12:17:16.956Z,760.00
2024-02-22T12:18:17.831Z,772.00
2024-02-22T12:19:18.800Z,796.00
2024-02-22T12:20:16.977Z,831.00
2024-02-22T12:21:19.169Z,835.00
2024-02-22T12:22:16.859Z,836.00
2024-02-22T12:23:16.959Z,839.00
2024-02-22T12:24:16.934Z,842.00
2024-02-22T12:25:16.851Z,848.00
2024-02-22T12:26:16.946Z,845.00
2024-02-22T12:27:20.111Z,847.00
2024-02-22T12:28:16.810Z,848.00